Time;durP1;ratioP1;P1;durP2;ratioP2;P2;SDS_P1;SDS_P2;PMS_P1;PMS_P2;Temp;Humidity;BMP_temperature;BMP_pressure;BME280_temperature;BME280_humidity;BME280_pressure;Samples;Min_cycle;Max_cycle;Signal;HPM_P1;HPM_P2
2022/04/03 00:00:32;;;;;;;2.13;0.95;;;19.00;64.30;;;;;;5132838;27;20031;-65
2022/04/03 00:03:00;;;;;;;2.60;1.10;;;19.10;62.60;;;;;;5103114;28;20039;-65
2022/04/03 00:05:28;;;;;;;4.70;1.02;;;19.20;62.60;;;;;;5102524;28;20032;-64
2022/04/03 00:07:55;;;;;;;2.22;1.17;;;19.20;62.10;;;;;;5127435;27;20380;-64
2022/04/03 00:10:23;;;;;;;6.20;1.20;;;19.20;61.60;;;;;;5105629;27;20038;-64
2022/04/03 00:12:50;;;;;;;4.05;1.10;;;19.20;61.70;;;;;;5126224;27;20107;-65
2022/04/03 00:15:18;;;;;;;2.45;1.00;;;19.20;63.10;;;;;;5121907;28;20063;-65
2022/04/03 06:29:47;;;;;;;3.22;1.60;;;21.50;55.20;;;;;;5104591;28;20468;-65
2022/04/03 06:32:14;;;;;;;2.72;1.48;;;21.40;55.50;;;;;;5107805;28;20119;-64
2022/04/03 06:34:41;;;;;;;3.03;1.58;;;21.40;55.50;;;;;;5111331;28;20032;-65
2022/04/03 06:37:08;;;;;;;5.03;1.67;;;21.40;55.30;;;;;;5093980;28;20096;-65
2022/04/03 06:39:35;;;;;;;4.53;1.90;;;21.40;55.00;;;;;;5091785;28;20034;-65
2022/04/03 06:42:04;;;;;;;5.03;1.52;;;21.30;54.80;;;;;;5091795;28;20044;-65
2022/04/03 06:44:31;;;;;;;3.03;1.90;;;21.30;54.90;;;;;;5056403;28;20127;-65
2022/04/03 06:46:59;;;;;;;3.05;1.65;;;21.30;54.90;;;;;;5091965;28;20664;-65
2022/04/03 06:49:30;;;;;;;3.95;1.85;;;21.30;54.90;;;;;;5073593;28;20032;-64
2022/04/03 06:51:57;;;;;;;4.85;1.83;;;21.30;54.90;;;;;;5069326;28;20035;-66
2022/04/03 06:54:24;;;;;;;3.17;1.63;;;21.30;55.20;;;;;;5094270;28;20460;-66
2022/04/03 06:56:55;;;;;;;3.05;1.70;;;21.30;55.00;;;;;;5111097;28;20051;-65
2022/04/03 06:59:23;;;;;;;6.78;2.00;;;21.30;54.80;;;;;;5106544;28;20111;-66
2022/04/03 07:01:50;;;;;;;4.35;2.05;;;21.30;55.10;;;;;;5090077;28;20489;-66
2022/04/03 07:04:18;;;;;;;3.65;1.70;;;21.20;55.10;;;;;;5104700;28;20035;-66
2022/04/03 07:06:45;;;;;;;6.43;2.28;;;21.20;54.90;;;;;;5111157;28;20081;-67
2022/04/03 07:09:12;;;;;;;3.05;1.60;;;21.20;54.80;;;;;;5110690;28;20019;-66
2022/04/03 07:11:40;;;;;;;2.70;1.67;;;21.20;54.40;;;;;;5110440;28;20032;-65
2022/04/03 07:14:07;;;;;;;2.75;1.58;;;21.10;54.20;;;;;;5110179;28;20027;-64
2022/04/03 07:16:34;;;;;;;5.07;2.13;;;21.20;53.90;;;;;;5111470;28;20097;-65
2022/04/03 07:19:01;;;;;;;3.13;1.60;;;21.10;53.40;;;;;;5111113;28;20035;-66
2022/04/03 07:21:29;;;;;;;3.78;1.50;;;21.10;53.20;;;;;;5111095;28;20493;-66
2022/04/03 07:23:56;;;;;;;4.00;1.50;;;21.10;53.00;;;;;;5111152;28;20097;-67
2022/04/03 07:26:24;;;;;;;2.42;1.73;;;21.10;53.20;;;;;;5083073;28;20497;-65
2022/04/03 07:28:51;;;;;;;4.80;1.67;;;21.00;52.90;;;;;;5100568;28;20095;-65
2022/04/03 07:31:18;;;;;;;6.88;1.83;;;21.00;53.00;;;;;;5090905;28;20044;-66
2022/04/03 07:33:46;;;;;;;4.55;1.60;;;21.00;53.20;;;;;;5073300;28;20032;-66
2022/04/03 07:36:13;;;;;;;5.00;1.80;;;21.00;53.00;;;;;;5085016;28;20173;-66
2022/04/03 07:38:41;;;;;;;4.65;1.92;;;21.00;52.80;;;;;;5090206;28;20383;-65
2022/04/03 07:41:08;;;;;;;2.97;1.70;;;20.90;52.70;;;;;;5090942;28;20517;-65
2022/04/03 07:43:35;;;;;;;2.97;1.90;;;20.90;52.60;;;;;;5090407;28;20453;-66
2022/04/03 07:46:02;;;;;;;3.50;1.80;;;20.90;52.40;;;;;;5073185;28;20024;-66
2022/04/03 07:48:29;;;;;;;3.90;1.70;;;20.90;52.60;;;;;;5090081;28;20032;-66
2022/04/03 07:50:56;;;;;;;3.50;1.67;;;20.90;52.90;;;;;;5072478;28;20042;-64
2022/04/03 07:53:24;;;;;;;2.47;1.80;;;20.80;52.70;;;;;;5090858;28;20420;-65
2022/04/03 07:55:51;;;;;;;4.28;1.73;;;20.80;53.00;;;;;;5081848;28;20052;-65
2022/04/03 07:58:18;;;;;;;3.20;1.70;;;20.80;52.60;;;;;;5081207;28;20188;-65
2022/04/03 08:00:46;;;;;;;4.68;1.80;;;20.80;52.40;;;;;;5103594;28;20043;-64
2022/04/03 08:03:14;;;;;;;6.00;1.60;;;20.80;52.50;;;;;;5092470;28;20019;-64
2022/04/03 08:05:42;;;;;;;2.85;1.50;;;20.80;52.60;;;;;;5111329;28;20149;-64
2022/04/03 08:08:09;;;;;;;4.13;1.90;;;20.70;52.70;;;;;;5109784;28;20084;-64
2022/04/03 08:10:36;;;;;;;2.75;1.42;;;20.70;52.50;;;;;;5100999;28;20128;-63
2022/04/03 08:13:04;;;;;;;5.05;1.58;;;20.70;52.60;;;;;;5090551;28;20054;-63
2022/04/03 08:15:31;;;;;;;3.03;1.63;;;20.70;52.40;;;;;;5090330;28;20068;-66
2022/04/03 08:17:58;;;;;;;3.90;1.85;;;20.70;52.70;;;;;;5089936;28;20052;-65
2022/04/03 08:20:25;;;;;;;2.22;1.42;;;20.70;52.10;;;;;;5090063;28;20100;-65
2022/04/03 08:22:53;;;;;;;2.75;1.35;;;20.70;52.20;;;;;;5090350;28;20371;-65
2022/04/03 08:25:20;;;;;;;3.40;1.77;;;20.70;52.60;;;;;;5090506;28;20031;-65
2022/04/03 08:27:52;;;;;;;4.72;1.50;;;20.60;52.50;;;;;;5088821;28;20050;-65
2022/04/03 08:30:26;;;;;;;3.67;1.80;;;20.60;52.30;;;;;;5088941;28;20135;-65
2022/04/03 08:32:54;;;;;;;3.05;1.60;;;20.50;52.40;;;;;;5094855;28;20032;-66
2022/04/03 08:35:22;;;;;;;3.42;1.77;;;20.50;52.30;;;;;;5110402;28;20263;-66
2022/04/03 08:37:50;;;;;;;4.07;1.48;;;20.50;52.10;;;;;;5110085;28;20020;-66
2022/04/03 08:40:20;;;;;;;4.70;1.65;;;20.60;52.20;;;;;;5109859;28;20035;-66
2022/04/03 08:42:47;;;;;;;4.13;1.73;;;20.50;52.10;;;;;;5110825;28;20050;-66
2022/04/03 08:45:15;;;;;;;2.95;1.40;;;20.50;52.00;;;;;;5110425;28;20392;-67
2022/04/03 08:47:52;;;;;;;4.35;1.80;;;20.50;51.70;;;;;;5090224;28;20036;-66
2022/04/03 08:50:20;;;;;;;3.33;1.77;;;20.50;51.90;;;;;;5072079;28;20040;-66
2022/04/03 08:52:49;;;;;;;2.83;1.50;;;20.40;52.30;;;;;;5090177;28;20374;-66
2022/04/03 08:55:16;;;;;;;3.85;1.60;;;20.40;52.10;;;;;;5071982;28;20511;-67
2022/04/03 08:57:43;;;;;;;4.30;1.40;;;20.40;51.90;;;;;;5074453;28;20067;-66
2022/04/03 09:00:13;;;;;;;2.38;1.45;;;20.40;52.60;;;;;;5095955;28;20038;-65
2022/04/03 09:02:41;;;;;;;4.45;1.60;;;20.40;52.70;;;;;;5113944;28;20110;-66
2022/04/03 09:05:11;;;;;;;4.00;1.42;;;20.30;52.20;;;;;;5077954;28;20027;-65
2022/04/03 09:07:39;;;;;;;2.03;1.40;;;20.30;52.20;;;;;;5113555;28;20095;-64
2022/04/03 09:10:17;;;;;;;3.10;1.50;;;20.30;52.60;;;;;;5113898;28;20038;-64
2022/04/03 09:12:47;;;;;;;3.53;1.58;;;20.30;52.40;;;;;;5113893;28;20036;-64
2022/04/03 09:15:21;;;;;;;4.75;1.75;;;20.30;52.00;;;;;;5111278;28;20084;-65
2022/04/03 09:17:50;;;;;;;5.72;1.70;;;20.30;52.60;;;;;;5097043;28;20024;-65
2022/04/03 09:20:18;;;;;;;4.20;1.50;;;20.20;52.00;;;;;;5095786;28;20123;-66
2022/04/03 09:22:49;;;;;;;1.85;1.35;;;20.30;51.90;;;;;;5096010;28;20043;-66
2022/04/03 09:25:19;;;;;;;5.07;1.48;;;20.30;51.80;;;;;;5113251;28;20059;-65
2022/04/03 09:27:56;;;;;;;3.15;1.70;;;20.30;51.80;;;;;;5113504;28;20035;-65
2022/04/03 09:30:35;;;;;;;5.28;3.80;;;20.30;51.60;;;;;;5112060;28;20036;-66
2022/04/03 09:33:03;;;;;;;4.57;2.60;;;20.20;50.80;;;;;;5111915;28;20044;-66
2022/04/03 09:35:31;;;;;;;4.78;2.60;;;20.30;51.10;;;;;;5113250;28;20047;-65
2022/04/03 09:38:08;;;;;;;4.43;2.80;;;20.30;51.00;;;;;;5112130;28;20386;-67
2022/04/03 09:40:40;;;;;;;4.72;2.50;;;20.30;51.40;;;;;;5113859;28;20044;-66
2022/04/03 09:43:14;;;;;;;5.28;2.70;;;20.30;51.30;;;;;;5096142;28;20393;-65
2022/04/03 09:46:00;;;;;;;6.95;4.30;;;20.20;51.10;;;;;;5113067;28;20040;-65
2022/04/03 09:48:31;;;;;;;5.85;3.30;;;20.20;51.30;;;;;;5112723;27;20039;-64
2022/04/03 09:51:06;;;;;;;5.88;2.70;;;20.20;51.40;;;;;;5113373;28;20441;-65
2022/04/03 09:53:49;;;;;;;3.58;2.13;;;20.20;51.20;;;;;;5113398;28;20066;-65
2022/04/03 09:56:25;;;;;;;3.88;1.90;;;20.20;51.40;;;;;;5113191;28;20040;-66
2022/04/03 09:58:53;;;;;;;6.97;2.30;;;20.20;51.30;;;;;;5089972;28;20036;-67
2022/04/03 10:01:27;;;;;;;6.93;1.95;;;20.10;51.50;;;;;;5093003;28;20032;-67
2022/04/03 10:03:55;;;;;;;4.45;1.83;;;20.10;51.70;;;;;;5092810;28;20500;-67
2022/04/03 10:06:23;;;;;;;3.53;1.90;;;20.10;51.80;;;;;;5092879;28;20043;-66
2022/04/03 10:08:51;;;;;;;3.03;1.65;;;20.10;51.50;;;;;;5089480;28;20076;-68
2022/04/03 10:11:19;;;;;;;4.55;1.95;;;20.10;51.70;;;;;;5099070;28;20040;-67
2022/04/03 10:13:46;;;;;;;6.40;1.65;;;20.00;51.60;;;;;;5112267;28;20031;-66
2022/04/03 10:16:14;;;;;;;2.92;1.55;;;20.00;51.70;;;;;;5113038;28;20088;-66
2022/04/03 10:18:41;;;;;;;3.60;1.70;;;20.10;51.80;;;;;;5112365;28;20096;-65
2022/04/03 10:21:14;;;;;;;2.75;1.48;;;20.00;51.90;;;;;;5096444;28;20110;-66
2022/04/03 10:23:41;;;;;;;2.50;1.50;;;20.00;51.80;;;;;;5094617;28;20049;-66
2022/04/03 10:26:09;;;;;;;4.47;1.45;;;20.00;51.70;;;;;;5077747;28;20384;-65
2022/04/03 10:28:36;;;;;;;2.58;1.38;;;20.00;51.70;;;;;;5076688;28;20036;-65
2022/04/03 10:31:07;;;;;;;3.47;1.60;;;20.00;51.80;;;;;;5092356;28;20047;-65
2022/04/03 10:33:39;;;;;;;1.65;1.23;;;20.00;52.20;;;;;;5111136;28;20028;-65
2022/04/03 10:36:08;;;;;;;4.10;1.50;;;20.00;52.30;;;;;;5110983;28;20508;-65
2022/04/03 10:38:47;;;;;;;2.85;1.50;;;19.90;52.60;;;;;;5111709;28;20034;-65
2022/04/03 10:41:36;;;;;;;5.53;1.40;;;19.80;52.70;;;;;;5094470;28;20038;-66
2022/04/03 10:44:24;;;;;;;3.10;1.33;;;19.80;53.50;;;;;;5094054;28;20268;-65
2022/04/03 10:47:03;;;;;;;2.85;1.25;;;19.80;53.10;;;;;;5112057;28;20043;-65
2022/04/03 10:49:40;;;;;;;2.30;1.38;;;19.80;53.70;;;;;;5111538;28;20039;-65
2022/04/03 10:52:09;;;;;;;2.58;1.33;;;19.80;53.40;;;;;;5093782;28;20122;-66
2022/04/03 10:54:50;;;;;;;3.58;1.35;;;19.80;53.60;;;;;;5082059;28;20093;-65
2022/04/03 10:57:35;;;;;;;1.45;1.20;;;19.80;53.70;;;;;;5091959;28;20342;-67
2022/04/03 11:00:15;;;;;;;2.30;1.10;;;19.80;54.20;;;;;;5111635;28;20112;-66
2022/04/03 11:02:43;;;;;;;1.35;0.90;;;19.80;54.60;;;;;;5111516;28;20040;-66
2022/04/03 11:05:22;;;;;;;2.00;1.30;;;19.80;54.70;;;;;;5112253;28;20042;-66
2022/04/03 11:07:50;;;;;;;1.80;1.10;;;19.80;54.70;;;;;;5111384;28;20064;-66
2022/04/03 17:13:30;;;;;;;9.38;2.45;;;17.20;69.80;;;;;;5124159;27;20051;-64
2022/04/03 17:15:57;;;;;;;3.17;2.10;;;17.20;69.60;;;;;;5116134;27;20185;-64
2022/04/03 17:18:24;;;;;;;3.25;1.55;;;17.20;70.10;;;;;;5113270;27;20481;-64
2022/04/03 17:20:51;;;;;;;2.30;1.10;;;17.20;69.70;;;;;;5095758;28;20036;-64
2022/04/03 17:23:18;;;;;;;4.28;1.30;;;17.20;70.10;;;;;;5114026;28;20016;-64
2022/04/03 17:25:48;;;;;;;3.00;1.30;;;17.20;69.70;;;;;;5095640;28;20068;-64
2022/04/03 17:28:15;;;;;;;3.83;1.40;;;17.10;69.50;;;;;;5113235;28;20102;-64
2022/04/03 17:30:42;;;;;;;4.57;1.45;;;17.10;70.40;;;;;;5107586;27;20053;-64
2022/04/03 17:33:10;;;;;;;4.63;1.10;;;17.00;70.70;;;;;;5115897;27;20487;-64
2022/04/03 17:35:37;;;;;;;5.53;1.70;;;17.10;70.00;;;;;;5115124;27;20039;-64
2022/04/03 17:38:04;;;;;;;4.43;1.40;;;17.00;69.70;;;;;;5113535;28;20024;-64
2022/04/03 17:40:31;;;;;;;4.00;1.40;;;17.00;70.10;;;;;;5113121;28;20129;-64
2022/04/03 17:42:58;;;;;;;5.38;1.33;;;17.00;70.40;;;;;;5108033;27;20046;-64
2022/04/03 17:45:27;;;;;;;4.47;1.27;;;16.90;70.50;;;;;;5134417;27;20035;-64
2022/04/03 17:47:54;;;;;;;5.30;1.20;;;16.90;70.30;;;;;;5115595;27;20032;-64
2022/04/03 17:50:22;;;;;;;3.42;1.40;;;16.80;70.90;;;;;;5115609;27;20047;-64
2022/04/03 17:52:49;;;;;;;6.30;1.67;;;16.80;70.40;;;;;;5098237;27;20966;-64
2022/04/03 17:55:16;;;;;;;5.82;1.65;;;16.80;70.60;;;;;;5082615;28;20567;-64
2022/04/03 17:57:43;;;;;;;9.02;1.52;;;16.70;71.20;;;;;;5094900;28;20042;-64
2022/04/03 18:00:11;;;;;;;13.27;1.70;;;16.70;70.70;;;;;;5109645;27;20119;-64
2022/04/03 18:02:38;;;;;;;11.55;1.65;;;16.60;71.40;;;;;;5133977;27;20038;-64
2022/04/03 18:05:06;;;;;;;11.80;1.77;;;16.50;72.30;;;;;;5133957;27;20031;-64
2022/04/03 18:07:34;;;;;;;20.25;1.77;;;16.50;72.70;;;;;;5114491;27;20096;-64
2022/04/03 18:10:02;;;;;;;8.30;1.52;;;16.50;72.80;;;;;;5131653;27;20125;-64
2022/04/03 18:12:30;;;;;;;10.35;1.80;;;16.40;72.80;;;;;;5133271;27;20046;-64
2022/04/03 18:14:57;;;;;;;5.00;1.25;;;16.40;73.30;;;;;;5115040;27;20050;-64
2022/04/03 18:17:24;;;;;;;6.93;1.70;;;16.40;73.10;;;;;;5113659;27;20074;-64
2022/04/03 18:19:52;;;;;;;1.83;1.20;;;16.30;73.40;;;;;;5111653;28;20028;-64
2022/04/03 18:22:20;;;;;;;2.30;1.40;;;16.30;73.60;;;;;;5094787;28;20032;-64
2022/04/03 18:24:47;;;;;;;5.07;1.20;;;16.30;74.30;;;;;;5094764;28;20029;-64
2022/04/03 18:27:15;;;;;;;4.35;1.55;;;16.40;74.00;;;;;;5112888;28;20400;-64
2022/04/03 18:29:43;;;;;;;4.85;1.60;;;16.40;73.90;;;;;;5103797;27;20023;-64
2022/04/03 18:32:10;;;;;;;2.60;1.27;;;16.40;72.90;;;;;;5132285;27;20038;-64
2022/04/03 18:34:37;;;;;;;1.95;1.00;;;16.40;73.00;;;;;;5114522;27;20023;-64
2022/04/03 18:37:05;;;;;;;2.22;1.25;;;16.50;72.80;;;;;;5113970;27;20043;-64
2022/04/03 18:39:32;;;;;;;4.55;1.35;;;16.50;71.40;;;;;;5113733;27;20422;-64
2022/04/03 18:41:59;;;;;;;1.52;1.10;;;16.60;73.80;;;;;;5114761;27;20031;-64
2022/04/03 18:44:26;;;;;;;3.60;1.48;;;16.60;74.30;;;;;;5114743;27;20031;-64
2022/04/03 18:46:54;;;;;;;3.35;1.27;;;16.50;73.10;;;;;;5114305;27;20054;-64
2022/04/03 18:49:21;;;;;;;2.58;1.10;;;16.30;72.60;;;;;;5113848;27;20035;-64
2022/04/03 18:51:48;;;;;;;3.60;1.50;;;16.30;73.30;;;;;;5114021;27;20396;-65
2022/04/03 18:54:15;;;;;;;3.00;1.20;;;16.20;73.80;;;;;;5097933;27;20085;-65
2022/04/03 18:56:43;;;;;;;6.22;1.00;;;16.20;73.60;;;;;;5114207;27;20031;-64
2022/04/03 18:59:11;;;;;;;4.75;1.30;;;16.20;73.60;;;;;;5131932;27;20043;-64
2022/04/03 19:01:39;;;;;;;4.25;1.48;;;16.20;73.40;;;;;;5110766;27;20123;-64
2022/04/03 19:04:06;;;;;;;2.42;1.17;;;16.10;73.10;;;;;;5111491;27;20108;-64
2022/04/03 19:06:34;;;;;;;5.70;1.30;;;16.10;73.10;;;;;;5093928;28;20031;-64
2022/04/03 19:09:03;;;;;;;3.92;1.30;;;16.10;73.30;;;;;;5111735;28;20020;-65
2022/04/03 19:11:30;;;;;;;4.55;1.60;;;16.10;73.30;;;;;;5092579;28;20043;-64
2022/04/03 19:13:57;;;;;;;3.72;1.20;;;16.10;72.90;;;;;;5113420;27;20527;-64
2022/04/03 19:16:25;;;;;;;3.00;1.00;;;16.10;73.20;;;;;;5113138;27;20047;-64
2022/04/03 19:18:52;;;;;;;4.47;1.35;;;16.10;73.10;;;;;;5110180;28;20114;-64
2022/04/03 19:21:19;;;;;;;1.77;1.10;;;16.10;73.50;;;;;;5107383;27;20389;-64
2022/04/03 19:23:51;;;;;;;1.88;1.10;;;16.10;73.10;;;;;;5103859;27;20493;-65
2022/04/03 19:26:20;;;;;;;2.70;1.10;;;16.10;73.70;;;;;;5121946;27;20045;-64
2022/04/03 19:28:48;;;;;;;4.95;1.15;;;16.10;73.20;;;;;;5141489;27;20035;-64
2022/04/03 19:31:15;;;;;;;4.80;1.75;;;16.10;72.80;;;;;;5152137;27;20025;-64
2022/04/03 19:33:42;;;;;;;2.97;1.30;;;16.20;73.60;;;;;;5116158;27;20107;-65
2022/04/03 19:36:09;;;;;;;2.63;1.30;;;16.10;72.90;;;;;;5152036;27;20490;-64
2022/04/03 22:43:11;;;;;;;5.20;1.70;;;18.40;66.40;;;;;;5116494;27;20050;-65
2022/04/03 22:45:38;;;;;;;5.13;1.50;;;18.50;66.50;;;;;;5109977;27;20051;-65
2022/04/03 22:48:06;;;;;;;2.25;1.50;;;18.50;66.80;;;;;;5128856;27;20034;-65
2022/04/03 22:50:35;;;;;;;4.30;1.50;;;18.50;66.20;;;;;;5112109;27;20034;-65
2022/04/03 22:53:04;;;;;;;1.95;1.40;;;18.60;65.70;;;;;;5113773;27;20051;-65
2022/04/03 22:55:31;;;;;;;4.18;1.65;;;18.70;65.60;;;;;;5113663;27;20041;-65
2022/04/03 22:57:59;;;;;;;5.05;1.35;;;18.80;65.40;;;;;;5131486;27;20076;-65
2022/04/03 23:00:26;;;;;;;5.03;1.40;;;18.80;64.10;;;;;;5132374;27;20024;-65
2022/04/03 23:02:54;;;;;;;4.20;1.25;;;18.90;64.30;;;;;;5114512;27;20034;-65
2022/04/03 23:05:21;;;;;;;2.53;1.45;;;19.00;63.80;;;;;;5114618;27;20027;-65
2022/04/03 23:07:50;;;;;;;5.05;1.30;;;19.00;63.90;;;;;;5113248;27;20168;-65
2022/04/03 23:10:17;;;;;;;2.65;1.23;;;19.10;63.80;;;;;;5131905;27;20035;-65
2022/04/03 23:12:45;;;;;;;2.72;1.27;;;19.10;64.20;;;;;;5113784;27;20043;-65
2022/04/03 23:15:12;;;;;;;3.53;1.25;;;19.20;63.80;;;;;;5096277;27;20398;-65
2022/04/03 23:17:39;;;;;;;5.63;1.60;;;19.20;63.30;;;;;;5131513;27;20039;-65
2022/04/03 23:20:07;;;;;;;3.58;1.23;;;19.30;63.50;;;;;;5113321;27;20027;-65
2022/04/03 23:22:34;;;;;;;4.53;1.30;;;19.30;62.30;;;;;;5132086;27;20065;-65
2022/04/03 23:25:01;;;;;;;3.95;1.30;;;19.40;62.70;;;;;;5113733;27;20051;-65
2022/04/03 23:27:29;;;;;;;4.20;1.38;;;19.50;60.80;;;;;;5131766;27;20519;-65
2022/04/03 23:29:56;;;;;;;3.60;1.38;;;19.50;60.40;;;;;;5131993;27;20049;-65
2022/04/03 23:32:23;;;;;;;5.47;1.45;;;19.60;59.70;;;;;;5131719;27;20039;-65
2022/04/03 23:34:50;;;;;;;2.25;1.40;;;19.70;59.50;;;;;;5131776;27;20035;-66
2022/04/03 23:37:17;;;;;;;5.25;1.50;;;19.70;58.40;;;;;;5113500;27;20130;-65
2022/04/03 23:39:44;;;;;;;2.13;1.25;;;19.80;57.50;;;;;;5131725;27;20035;-65
2022/04/03 23:42:12;;;;;;;2.72;1.30;;;19.80;58.90;;;;;;5131400;27;20062;-65
2022/04/03 23:44:39;;;;;;;2.80;1.70;;;19.90;57.10;;;;;;5131275;27;20405;-65
2022/04/03 23:47:06;;;;;;;4.35;1.80;;;20.00;55.80;;;;;;5130955;27;20027;-65
2022/04/03 23:49:34;;;;;;;4.63;1.60;;;20.00;55.40;;;;;;5113194;28;20027;-65
2022/04/03 23:52:01;;;;;;;4.47;2.13;;;20.00;55.00;;;;;;5096394;27;20058;-65
2022/04/03 23:54:28;;;;;;;3.00;1.20;;;20.10;57.10;;;;;;5131562;27;20035;-65
2022/04/03 23:56:56;;;;;;;2.70;1.25;;;20.10;57.80;;;;;;5113515;28;20043;-65
2022/04/03 23:59:23;;;;;;;3.05;1.00;;;20.10;57.60;;;;;;5112878;28;20446;-65
